Terminal Aerodrome Forecast
Issued by NWS Columbia, SC

Home | Current Version | Previous Version | Text Only | Print | Product List | Glossary On
Versions: 1 2 3 4 5 6 7 8 9 10 11 12 13 14 15 16 17 18 19 20 21 22 23 24 25 26
366
FTUS42 KCAE 221730
TAFCAE
TAF
KCAE 221730Z 2218/2318 10010G15KT P6SM BKN045
     FM230000 10007KT P6SM SCT030 BKN120
     FM230900 09004KT P6SM OVC015
      TEMPO 2310/2314 BKN007
     FM231400 15008KT 4SM -SHRA BR OVC015=

USA.gov is the U.S. government's official web portal to all federal, state and local government web resources and services.